Terminal Aerodrome Forecast
Issued by NWS Melbourne, FL

Home | Current Version | Previous Version | Text Only | Print | Product List | Glossary On
Versions: 1 2 3 4 5 6 7 8 9 10 11 12 13
112
FTUS42 KMLB 241731
TAFDAB
TAF
KDAB 241731Z 2418/2518 06008KT P6SM VCSH SCT035
     FM250000 VRB03KT P6SM FEW025 BKN250
     FM251500 05006KT P6SM SCT025 SCT250=

USA.gov is the U.S. government's official web portal to all federal, state and local government web resources and services.